createdAt,value
2022-10-06T00:00:47.400Z,99.90
2022-10-06T00:03:16.624Z,99.90
2022-10-06T00:05:44.689Z,99.90
2022-10-06T00:08:12.484Z,99.90
2022-10-06T00:10:40.636Z,99.90
2022-10-06T00:13:09.743Z,99.90
2022-10-06T00:15:37.485Z,99.90
2022-10-06T00:18:05.628Z,99.90
2022-10-06T00:20:34.677Z,99.90
2022-10-06T00:23:03.304Z,99.90
2022-10-06T00:25:31.031Z,99.90
2022-10-06T00:27:58.819Z,99.90
2022-10-06T00:30:28.566Z,99.90
2022-10-06T00:32:58.060Z,99.90
2022-10-06T00:35:26.884Z,99.90
2022-10-06T00:37:56.939Z,99.90
2022-10-06T00:40:24.795Z,99.90
2022-10-06T00:42:55.213Z,99.90
2022-10-06T00:45:29.345Z,99.90
2022-10-06T00:48:01.259Z,99.90
2022-10-06T00:50:30.387Z,99.90
2022-10-06T00:52:59.575Z,99.90
2022-10-06T00:55:27.417Z,99.90
2022-10-06T00:57:55.496Z,99.90
2022-10-06T01:00:23.451Z,99.90
2022-10-06T01:02:56.941Z,99.90
2022-10-06T01:05:30.323Z,99.90
2022-10-06T01:07:59.831Z,99.90
2022-10-06T01:10:28.635Z,99.90
2022-10-06T01:12:57.067Z,99.90
2022-10-06T01:15:25.520Z,99.90
2022-10-06T01:17:56.488Z,99.90
2022-10-06T01:20:24.393Z,99.90
2022-10-06T01:22:57.280Z,99.90
2022-10-06T01:25:25.205Z,99.90
2022-10-06T01:27:55.850Z,99.90
2022-10-06T01:30:27.570Z,99.90
2022-10-06T01:32:55.360Z,99.90
2022-10-06T01:35:23.075Z,99.90
2022-10-06T01:37:50.917Z,99.90
2022-10-06T01:40:20.020Z,99.90
2022-10-06T01:42:47.808Z,99.90
2022-10-06T01:45:15.528Z,99.90
2022-10-06T01:47:43.345Z,99.90
2022-10-06T01:50:11.065Z,99.90
2022-10-06T01:52:38.775Z,99.90
2022-10-06T01:55:07.505Z,99.90
2022-10-06T01:57:41.036Z,99.90
2022-10-06T02:00:11.136Z,99.90
2022-10-06T02:02:38.888Z,99.90
2022-10-06T02:05:07.061Z,99.90
2022-10-06T02:07:36.311Z,99.90
2022-10-06T02:10:04.478Z,99.90
2022-10-06T02:12:32.640Z,99.90
2022-10-06T02:15:01.707Z,99.90
2022-10-06T02:17:29.495Z,99.90
2022-10-06T02:19:57.157Z,99.90
2022-10-06T02:22:24.883Z,99.90
2022-10-06T02:24:52.543Z,99.90
2022-10-06T02:27:20.453Z,99.90
2022-10-06T02:29:49.120Z,99.90
2022-10-06T02:32:18.152Z,99.90
2022-10-06T02:34:45.883Z,99.90
2022-10-06T02:37:15.720Z,99.90
2022-10-06T02:39:43.471Z,99.90
2022-10-06T02:42:12.035Z,99.90
2022-10-06T02:44:39.787Z,99.90
2022-10-06T02:47:12.452Z,99.90
2022-10-06T02:49:41.452Z,99.90
2022-10-06T02:52:11.061Z,99.90
2022-10-06T02:54:38.737Z,99.90
2022-10-06T02:57:06.519Z,99.90
2022-10-06T02:59:35.063Z,99.90
2022-10-06T03:02:03.176Z,99.90
2022-10-06T03:04:31.140Z,99.90
2022-10-06T03:07:00.172Z,99.90
2022-10-06T03:09:27.832Z,99.90
2022-10-06T03:11:55.558Z,99.90
2022-10-06T03:14:23.376Z,99.90
2022-10-06T03:16:51.747Z,99.90
2022-10-06T03:19:19.650Z,99.90
2022-10-06T03:21:47.427Z,99.90
2022-10-06T03:24:16.931Z,99.90
2022-10-06T03:26:46.211Z,99.90
2022-10-06T03:29:15.208Z,99.90
2022-10-06T03:31:43.451Z,99.90
2022-10-06T03:34:13.377Z,99.90
2022-10-06T03:36:41.097Z,99.90
2022-10-06T03:39:09.457Z,99.90
2022-10-06T03:41:39.460Z,99.90
2022-10-06T03:44:07.624Z,99.90
2022-10-06T03:46:37.070Z,99.90
2022-10-06T03:49:05.607Z,99.90
2022-10-06T03:51:34.980Z,99.90
2022-10-06T03:54:02.703Z,99.90
2022-10-06T03:56:31.882Z,99.90
2022-10-06T03:59:02.846Z,99.90
2022-10-06T04:01:34.163Z,99.90
2022-10-06T04:04:03.332Z,99.90
2022-10-06T04:06:33.385Z,99.90
2022-10-06T04:09:01.749Z,99.90
2022-10-06T04:11:31.264Z,99.90
2022-10-06T04:14:01.577Z,99.90
2022-10-06T04:16:31.968Z,99.90
2022-10-06T04:19:01.370Z,99.90
2022-10-06T04:21:30.835Z,99.90
2022-10-06T04:23:59.796Z,99.90
2022-10-06T04:26:30.429Z,99.90
2022-10-06T04:29:00.517Z,99.90
2022-10-06T04:31:29.966Z,99.90
2022-10-06T04:33:59.398Z,99.90
2022-10-06T04:36:29.025Z,99.90
2022-10-06T04:38:58.787Z,99.90
2022-10-06T04:41:28.834Z,99.90
2022-10-06T04:43:57.256Z,99.90
2022-10-06T04:46:44.506Z,99.90
2022-10-06T04:49:18.908Z,99.90
2022-10-06T04:51:47.766Z,99.90
2022-10-06T04:54:15.452Z,99.90
2022-10-06T04:56:43.130Z,99.90
2022-10-06T04:59:10.858Z,99.90
2022-10-06T05:01:39.891Z,99.90
2022-10-06T05:04:08.005Z,99.90
2022-10-06T05:06:37.328Z,99.90
2022-10-06T05:09:07.435Z,99.90
2022-10-06T05:11:35.488Z,99.90
2022-10-06T05:14:03.229Z,99.90
2022-10-06T05:16:32.211Z,99.90
2022-10-06T05:19:01.317Z,99.90
2022-10-06T05:21:30.928Z,99.90
2022-10-06T05:23:58.735Z,99.90
2022-10-06T05:26:28.320Z,99.70
2022-10-06T05:28:56.156Z,99.90
2022-10-06T05:31:26.696Z,99.90
2022-10-06T05:33:54.700Z,99.90
2022-10-06T05:36:25.591Z,99.90
2022-10-06T05:38:53.459Z,99.90
2022-10-06T05:41:22.451Z,99.80
2022-10-06T05:43:50.529Z,99.40
2022-10-06T05:46:20.899Z,99.30
2022-10-06T05:48:49.460Z,99.30
2022-10-06T05:51:18.999Z,98.80
2022-10-06T05:53:48.499Z,98.60
2022-10-06T05:56:17.889Z,98.50
2022-10-06T05:58:47.529Z,98.50
2022-10-06T06:01:17.032Z,98.60
2022-10-06T06:03:48.688Z,98.70
2022-10-06T06:06:18.251Z,98.20
2022-10-06T06:08:46.400Z,98.60
2022-10-06T06:11:15.504Z,97.40
2022-10-06T06:13:43.295Z,98.00
2022-10-06T06:16:14.359Z,98.30
2022-10-06T06:18:42.439Z,98.10
2022-10-06T06:21:11.585Z,98.20
2022-10-06T06:23:40.768Z,98.30
2022-10-06T06:26:10.622Z,97.50
2022-10-06T06:28:40.620Z,97.80
2022-10-06T06:31:10.381Z,97.60
2022-10-06T06:33:39.639Z,97.40
2022-10-06T06:36:14.097Z,97.90
2022-10-06T06:38:41.890Z,97.80
2022-10-06T06:41:17.032Z,98.10
2022-10-06T06:43:46.535Z,98.00
2022-10-06T06:46:15.615Z,97.50
2022-10-06T06:48:44.908Z,96.80
2022-10-06T06:51:12.976Z,96.40
2022-10-06T06:53:41.108Z,96.50
2022-10-06T06:56:10.117Z,96.00
2022-10-06T06:58:38.595Z,95.70
2022-10-06T07:01:13.527Z,95.40
2022-10-06T07:03:58.644Z,94.80
2022-10-06T07:06:29.359Z,94.70
2022-10-06T07:08:59.117Z,94.20
2022-10-06T07:11:28.864Z,93.70
2022-10-06T07:13:59.167Z,92.90
2022-10-06T07:16:47.257Z,92.30
2022-10-06T07:19:33.673Z,92.10
2022-10-06T07:22:20.879Z,91.80
2022-10-06T07:25:06.315Z,91.30
2022-10-06T07:27:36.700Z,90.30
2022-10-06T07:30:05.076Z,89.70
2022-10-06T07:32:34.176Z,87.80
2022-10-06T07:35:04.098Z,83.90
2022-10-06T07:37:31.787Z,76.30
2022-10-06T07:39:59.457Z,74.20
2022-10-06T07:42:27.317Z,73.20
2022-10-06T07:45:12.373Z,72.90
2022-10-06T07:47:41.455Z,72.90
2022-10-06T07:50:11.461Z,73.60
2022-10-06T07:52:39.588Z,74.20
2022-10-06T07:55:08.218Z,73.00
2022-10-06T07:57:35.923Z,73.10
2022-10-06T08:00:07.230Z,72.40
2022-10-06T08:02:36.090Z,71.70
2022-10-06T08:05:07.029Z,70.70
2022-10-06T08:07:34.880Z,69.40
2022-10-06T08:10:02.935Z,69.70
2022-10-06T08:12:37.655Z,68.20
2022-10-06T08:15:07.603Z,67.10
2022-10-06T08:17:36.719Z,64.40
2022-10-06T08:20:06.909Z,63.30
2022-10-06T08:22:36.033Z,58.30
2022-10-06T08:25:06.747Z,55.80
2022-10-06T08:27:35.791Z,52.30
2022-10-06T08:30:04.826Z,49.00
2022-10-06T08:32:33.055Z,47.80
2022-10-06T08:35:00.959Z,48.50
2022-10-06T08:37:29.994Z,49.70
2022-10-06T08:39:57.975Z,49.00
2022-10-06T08:42:33.772Z,46.70
2022-10-06T08:45:04.160Z,45.50
2022-10-06T08:47:35.717Z,46.40
2022-10-06T08:50:06.436Z,48.90
2022-10-06T08:52:49.011Z,52.00
2022-10-06T08:55:30.306Z,53.50
2022-10-06T08:58:29.210Z,51.10
2022-10-06T09:01:01.293Z,49.70
2022-10-06T09:03:30.968Z,46.60
2022-10-06T09:06:06.655Z,44.80
2022-10-06T09:08:45.873Z,44.00
2022-10-06T09:11:31.441Z,41.90
2022-10-06T09:14:05.156Z,39.10
2022-10-06T09:16:37.026Z,37.20
2022-10-06T09:19:13.736Z,37.00
2022-10-06T09:21:45.427Z,35.40
2022-10-06T09:24:17.392Z,33.70
2022-10-06T09:26:48.595Z,32.30
2022-10-06T09:29:16.684Z,31.90
2022-10-06T09:31:50.926Z,31.10
2022-10-06T09:34:26.412Z,30.70
2022-10-06T09:37:02.750Z,29.90
2022-10-06T09:39:36.388Z,30.00
2022-10-06T09:42:11.778Z,29.00
2022-10-06T09:44:54.989Z,28.20
2022-10-06T09:47:45.848Z,27.80
2022-10-06T09:50:24.979Z,28.10
2022-10-06T09:53:16.192Z,29.30
2022-10-06T09:55:55.195Z,30.00
2022-10-06T09:58:31.349Z,30.80
2022-10-06T10:01:00.998Z,32.40
2022-10-06T10:03:51.518Z,33.60
2022-10-06T10:06:32.255Z,34.20
2022-10-06T10:09:22.695Z,35.20
2022-10-06T10:12:31.990Z,35.60
2022-10-06T10:15:03.937Z,35.80
2022-10-06T10:17:46.192Z,35.40
2022-10-06T10:20:37.376Z,35.10
2022-10-06T10:23:18.397Z,35.70
2022-10-06T10:25:58.467Z,35.40
2022-10-06T10:28:56.263Z,34.60
2022-10-06T10:31:31.929Z,32.80
2022-10-06T10:34:23.478Z,32.80
2022-10-06T10:36:57.300Z,32.20
2022-10-06T10:39:33.465Z,31.00
2022-10-06T10:42:05.169Z,30.30
2022-10-06T10:44:38.660Z,30.20
2022-10-06T10:47:15.845Z,30.00
2022-10-06T10:49:49.271Z,29.00
2022-10-06T10:52:21.786Z,28.40
2022-10-06T10:54:53.498Z,28.40
2022-10-06T10:57:25.207Z,27.60
2022-10-06T11:00:01.379Z,27.10
2022-10-06T11:02:29.396Z,27.40
2022-10-06T11:05:02.423Z,26.40
2022-10-06T11:07:34.988Z,26.40
2022-10-06T11:10:13.305Z,27.10
2022-10-06T11:13:01.287Z,27.80
2022-10-06T11:16:06.170Z,28.80
2022-10-06T11:18:44.039Z,29.50
2022-10-06T11:21:16.292Z,29.90
2022-10-06T11:23:53.277Z,29.30
2022-10-06T11:26:36.576Z,28.50
2022-10-06T11:29:14.156Z,28.20
2022-10-06T11:31:55.511Z,28.80
2022-10-06T11:34:23.288Z,29.20
2022-10-06T11:36:56.757Z,28.00
2022-10-06T11:39:31.164Z,26.70
2022-10-06T11:42:05.965Z,26.80
2022-10-06T11:44:40.210Z,26.80
2022-10-06T11:47:12.380Z,27.00
2022-10-06T11:49:51.792Z,26.60
2022-10-06T11:52:45.237Z,26.30
2022-10-06T11:55:20.214Z,26.50
2022-10-06T12:01:05.250Z,26.50
2022-10-06T12:04:03.648Z,27.20
2022-10-06T12:06:54.055Z,28.10
2022-10-06T12:09:53.532Z,28.30
2022-10-06T12:13:06.770Z,28.60
2022-10-06T12:19:03.494Z,28.30
2022-10-06T12:21:45.522Z,26.80
2022-10-06T12:24:28.944Z,26.50
2022-10-06T12:27:25.010Z,26.80
2022-10-06T12:30:01.522Z,26.70
2022-10-06T12:32:47.337Z,27.40
2022-10-06T12:35:24.525Z,27.50
2022-10-06T12:37:54.795Z,27.40
2022-10-06T12:40:55.189Z,27.90
2022-10-06T12:43:50.915Z,27.30
2022-10-06T12:46:26.589Z,27.70
2022-10-06T12:49:03.941Z,27.70
2022-10-06T12:51:35.241Z,27.20
2022-10-06T12:54:10.135Z,27.00
2022-10-06T12:56:40.044Z,26.50
2022-10-06T12:59:26.903Z,26.80
2022-10-06T13:01:57.739Z,27.60
2022-10-06T13:04:37.888Z,27.60
2022-10-06T13:07:14.873Z,28.90
2022-10-06T13:09:42.694Z,28.70
2022-10-06T13:12:28.672Z,28.20
2022-10-06T13:15:16.909Z,28.50
2022-10-06T13:17:48.492Z,29.10
2022-10-06T13:20:22.442Z,29.70
2022-10-06T13:22:58.916Z,29.50
2022-10-06T13:25:31.457Z,29.30
2022-10-06T13:28:02.137Z,29.60
2022-10-06T13:30:33.808Z,29.50
2022-10-06T13:33:04.255Z,30.30
2022-10-06T13:35:32.791Z,31.00
2022-10-06T13:38:03.965Z,30.00
2022-10-06T13:40:44.213Z,30.70
2022-10-06T13:43:20.062Z,31.50
2022-10-06T13:45:49.205Z,32.30
2022-10-06T13:48:19.836Z,31.80
2022-10-06T13:50:49.195Z,32.50
2022-10-06T13:53:27.536Z,32.20
2022-10-06T13:55:55.757Z,32.50
2022-10-06T13:58:27.686Z,33.00
2022-10-06T14:00:57.879Z,32.90
2022-10-06T14:03:29.130Z,32.90
2022-10-06T14:06:09.040Z,33.40
2022-10-06T14:08:38.582Z,33.50
2022-10-06T14:11:08.862Z,34.00
2022-10-06T14:13:45.081Z,34.70
2022-10-06T14:16:21.374Z,35.90
2022-10-06T14:21:36.344Z,36.30
2022-10-06T14:24:09.267Z,36.20
2022-10-06T14:26:38.232Z,36.60
2022-10-06T14:29:05.921Z,37.20
2022-10-06T14:31:34.563Z,37.60
2022-10-06T14:34:03.361Z,37.90
2022-10-06T14:36:32.796Z,37.90
2022-10-06T14:39:01.079Z,38.70
2022-10-06T14:41:31.960Z,40.00
2022-10-06T14:44:01.964Z,40.10
2022-10-06T14:46:30.542Z,39.50
2022-10-06T14:48:58.698Z,39.80
2022-10-06T14:51:29.289Z,39.80
2022-10-06T14:53:59.835Z,40.70
2022-10-06T14:56:31.595Z,41.00
2022-10-06T14:59:02.148Z,41.60
2022-10-06T15:01:30.073Z,42.10
2022-10-06T15:03:59.632Z,42.60
2022-10-06T15:06:45.795Z,42.20
2022-10-06T15:09:13.343Z,41.50
2022-10-06T15:11:42.390Z,42.30
2022-10-06T15:14:10.291Z,42.50
2022-10-06T15:16:40.651Z,42.00
2022-10-06T15:19:10.340Z,42.90
2022-10-06T15:21:38.898Z,43.00
2022-10-06T15:24:07.764Z,42.90
2022-10-06T15:26:53.298Z,43.40
2022-10-06T15:29:22.389Z,43.40
2022-10-06T15:31:53.114Z,43.50
2022-10-06T15:34:23.444Z,43.00
2022-10-06T15:36:52.816Z,43.80
2022-10-06T15:39:22.460Z,44.00
2022-10-06T15:41:50.371Z,43.90
2022-10-06T15:44:19.427Z,43.70
2022-10-06T15:46:50.033Z,43.80
2022-10-06T15:49:20.708Z,44.40
2022-10-06T15:51:50.425Z,44.70
2022-10-06T15:54:20.352Z,45.50
2022-10-06T15:56:49.446Z,45.70
2022-10-06T15:59:18.942Z,45.00
2022-10-06T16:01:48.467Z,44.90
2022-10-06T16:04:27.298Z,44.90
2022-10-06T16:06:56.216Z,44.80
2022-10-06T16:09:26.111Z,45.50
2022-10-06T16:11:54.991Z,46.00
2022-10-06T16:14:23.599Z,46.70
2022-10-06T16:16:53.927Z,46.90
2022-10-06T16:19:21.621Z,48.10
2022-10-06T16:21:49.969Z,49.10
2022-10-06T16:24:18.792Z,49.70
2022-10-06T16:26:47.816Z,49.80
2022-10-06T16:29:15.627Z,50.30
2022-10-06T16:31:43.457Z,50.70
2022-10-06T16:34:13.348Z,51.40
2022-10-06T16:36:41.797Z,51.70
2022-10-06T16:39:13.599Z,52.00
2022-10-06T16:41:41.534Z,52.30
2022-10-06T16:44:09.369Z,52.40
2022-10-06T16:46:37.690Z,52.40
2022-10-06T16:49:07.245Z,52.00
2022-10-06T16:51:37.929Z,52.50
2022-10-06T16:54:07.334Z,52.80
2022-10-06T16:56:37.371Z,52.90
2022-10-06T16:59:07.372Z,53.30
2022-10-06T17:01:37.232Z,54.30
2022-10-06T17:04:07.304Z,54.80
2022-10-06T17:06:38.997Z,55.30
2022-10-06T17:09:07.994Z,57.00
2022-10-06T17:11:37.409Z,61.00
2022-10-06T17:14:06.122Z,62.60
2022-10-06T17:16:36.948Z,63.90
2022-10-06T17:19:05.167Z,64.90
2022-10-06T17:21:45.679Z,64.80
2022-10-06T17:24:17.988Z,65.40
2022-10-06T17:26:47.618Z,66.90
2022-10-06T17:29:18.557Z,67.80
2022-10-06T17:31:47.076Z,68.90
2022-10-06T17:34:20.339Z,70.90
2022-10-06T17:36:51.326Z,72.40
2022-10-06T17:39:22.667Z,73.30
2022-10-06T17:41:52.388Z,73.20
2022-10-06T17:44:22.306Z,74.90
2022-10-06T17:46:51.624Z,77.80
2022-10-06T17:49:21.603Z,81.50
2022-10-06T17:51:52.037Z,85.50
2022-10-06T17:54:23.359Z,86.00
2022-10-06T17:56:52.878Z,87.10
2022-10-06T17:59:22.691Z,91.10
2022-10-06T18:01:51.643Z,90.60
2022-10-06T18:04:20.598Z,89.30
2022-10-06T18:06:49.113Z,88.10
2022-10-06T18:09:17.451Z,86.50
2022-10-06T18:11:48.248Z,83.90
2022-10-06T18:14:18.012Z,82.80
2022-10-06T18:16:50.886Z,84.10
2022-10-06T18:19:24.155Z,84.10
2022-10-06T18:21:52.136Z,83.90
2022-10-06T18:24:22.296Z,83.20
2022-10-06T18:26:53.001Z,83.20
2022-10-06T18:29:22.216Z,84.10
2022-10-06T18:31:51.708Z,84.70
2022-10-06T18:37:07.762Z,85.40
2022-10-06T18:39:35.453Z,83.20
2022-10-06T18:42:05.246Z,80.80
2022-10-06T18:44:50.317Z,80.00
2022-10-06T18:47:35.645Z,80.40
2022-10-06T18:50:03.389Z,81.50
2022-10-06T18:52:31.100Z,82.00
2022-10-06T18:54:59.009Z,85.20
2022-10-06T18:57:28.190Z,85.10
2022-10-06T18:59:55.914Z,85.10
2022-10-06T19:02:23.732Z,86.30
2022-10-06T19:04:52.011Z,87.50
2022-10-06T19:07:19.717Z,88.20
2022-10-06T19:09:47.501Z,88.20
2022-10-06T19:12:15.409Z,87.60
2022-10-06T19:14:47.674Z,89.60
2022-10-06T19:17:16.353Z,92.30
2022-10-06T19:19:45.873Z,94.90
2022-10-06T19:22:14.619Z,95.90
2022-10-06T19:24:44.158Z,96.40
2022-10-06T19:27:15.037Z,96.60
2022-10-06T19:29:46.797Z,97.20
2022-10-06T19:32:16.865Z,98.80
2022-10-06T19:34:44.895Z,98.10
2022-10-06T19:37:13.276Z,98.50
2022-10-06T19:39:43.579Z,97.00
2022-10-06T19:42:30.466Z,96.70
2022-10-06T19:44:59.789Z,97.20
2022-10-06T19:47:29.800Z,96.90
2022-10-06T19:50:02.039Z,98.10
2022-10-06T19:52:32.152Z,98.30
2022-10-06T19:55:00.679Z,98.10
2022-10-06T19:57:29.223Z,98.00
2022-10-06T19:59:56.982Z,99.90
2022-10-06T20:02:26.087Z,99.90
2022-10-06T20:04:53.895Z,99.90
2022-10-06T20:07:25.253Z,99.90
2022-10-06T20:09:52.935Z,99.90
2022-10-06T20:12:24.570Z,99.90
2022-10-06T20:14:53.265Z,99.90
2022-10-06T20:17:21.568Z,99.90
2022-10-06T20:19:55.156Z,99.90
2022-10-06T20:22:26.300Z,99.90
2022-10-06T20:24:54.265Z,99.90
2022-10-06T20:27:22.039Z,99.90
2022-10-06T20:29:49.936Z,99.90
2022-10-06T20:32:17.630Z,99.90
2022-10-06T20:34:45.595Z,99.90
2022-10-06T20:37:14.643Z,99.90
2022-10-06T20:39:59.911Z,99.90
2022-10-06T20:42:27.878Z,99.90
2022-10-06T20:44:55.577Z,99.90
2022-10-06T20:47:23.276Z,99.90
2022-10-06T20:49:54.951Z,99.90
2022-10-06T20:52:24.552Z,99.90
2022-10-06T20:54:52.546Z,99.90
2022-10-06T20:57:20.464Z,99.90
2022-10-06T20:59:48.954Z,99.90
2022-10-06T21:02:16.927Z,99.90
2022-10-06T21:04:44.987Z,99.90
2022-10-06T21:07:12.882Z,99.90
2022-10-06T21:09:43.041Z,99.90
2022-10-06T21:12:10.744Z,99.90
2022-10-06T21:14:42.067Z,99.90
2022-10-06T21:17:09.733Z,99.90
2022-10-06T21:19:37.619Z,99.90
2022-10-06T21:22:05.481Z,99.90
2022-10-06T21:24:33.151Z,99.90
2022-10-06T21:27:02.994Z,99.90
2022-10-06T21:29:30.710Z,99.90
2022-10-06T21:31:58.466Z,99.90
2022-10-06T21:34:26.635Z,99.90
2022-10-06T21:36:54.301Z,99.90
2022-10-06T21:39:22.072Z,99.90
2022-10-06T21:41:49.758Z,99.90
2022-10-06T21:44:20.198Z,99.90
2022-10-06T21:46:49.353Z,99.90
2022-10-06T21:49:19.070Z,99.90
2022-10-06T21:51:48.714Z,99.90
2022-10-06T21:54:17.363Z,99.90
2022-10-06T21:56:45.262Z,99.90
2022-10-06T21:59:13.213Z,99.90
2022-10-06T22:01:44.115Z,99.90
2022-10-06T22:04:14.085Z,99.90
2022-10-06T22:06:42.506Z,99.90
2022-10-06T22:09:14.147Z,99.90
2022-10-06T22:11:42.264Z,99.90
2022-10-06T22:14:13.383Z,99.90
2022-10-06T22:16:42.648Z,99.90
2022-10-06T22:19:12.858Z,99.90
2022-10-06T22:21:42.674Z,99.90
2022-10-06T22:24:12.378Z,99.90
2022-10-06T22:26:41.560Z,99.90
2022-10-06T22:29:11.964Z,99.90
2022-10-06T22:31:42.866Z,99.90
2022-10-06T22:34:12.878Z,99.90
2022-10-06T22:36:41.068Z,99.90
2022-10-06T22:39:09.046Z,99.90
2022-10-06T22:41:36.714Z,99.90
2022-10-06T22:44:04.657Z,99.90
2022-10-06T22:46:34.068Z,99.90
2022-10-06T22:49:04.115Z,99.90
2022-10-06T22:51:32.087Z,99.90
2022-10-06T22:54:00.718Z,99.90
2022-10-06T22:56:31.227Z,99.90
2022-10-06T22:59:00.245Z,99.90
2022-10-06T23:01:29.171Z,99.90
2022-10-06T23:03:57.154Z,99.90
2022-10-06T23:06:26.715Z,99.90
2022-10-06T23:08:54.468Z,99.90
2022-10-06T23:11:22.800Z,99.90
2022-10-06T23:13:52.782Z,99.90
2022-10-06T23:16:21.087Z,99.90
2022-10-06T23:18:49.386Z,99.90
2022-10-06T23:21:21.387Z,99.90
2022-10-06T23:23:52.008Z,99.90
2022-10-06T23:26:20.732Z,99.90
2022-10-06T23:28:52.602Z,99.90
2022-10-06T23:31:20.375Z,99.90
2022-10-06T23:33:48.126Z,99.90
2022-10-06T23:36:16.006Z,99.90
2022-10-06T23:38:44.455Z,99.90
2022-10-06T23:41:14.486Z,99.90
2022-10-06T23:43:42.149Z,99.90
2022-10-06T23:46:10.185Z,99.90
2022-10-06T23:48:37.982Z,99.90
2022-10-06T23:51:07.693Z,99.90
2022-10-06T23:53:35.950Z,99.90
2022-10-06T23:56:04.477Z,99.90
2022-10-06T23:58:34.030Z,99.90
